DLH224 EDDB-EDDM
Flight info
| Callsign | DLH224 |
|---|---|
| Flight time | 0h 55m |
| Altitude | 23000 |
| Route | KISUC1Q/06R KISUC Z117 ODLUN/N0473F370 Z207 SONDU/N0478F380 DCT NAMUB/N0473F370 T703 TIVDA DCT RUDNO M736 RDG T105 GOMAX DCT VESIX DCT LANDU LANDU2B |
| Aircraft | A388/J-SADE2E3FGHIJ3J4J5M1RWXY/LB1D1 |
Departure
| Time | 2026-05-06 18:33 |
|---|---|
| Airport | Berlin Brandenburg Airport (EDDB) |
Arrival
| Time | 2026-05-06 19:28 |
|---|---|
| Airport | Munich Airport (EDDM) |
| Time | Latitude | Longitude | Altitude | Speed | Heading |
|---|---|---|---|---|---|
| 2026-05-06 17:54 | 52.36199 | 13.50246 | 154 ft | 0 kts | 249° |
| 2026-05-06 18:14 | 52.36200 | 13.50251 | 154 ft | 2 kts | 249° |
| 2026-05-06 18:14 | 52.36208 | 13.50292 | 153 ft | 4 kts | 255° |
| 2026-05-06 18:14 | 52.36214 | 13.50329 | 154 ft | 4 kts | 249° |
| 2026-05-06 18:15 | 52.36225 | 13.50358 | 154 ft | 4 kts | 216° |
| 2026-05-06 18:15 | 52.36241 | 13.50366 | 154 ft | 4 kts | 174° |
| 2026-05-06 18:15 | 52.36266 | 13.50356 | 154 ft | 4 kts | 159° |
| 2026-05-06 18:15 | 52.36285 | 13.50343 | 154 ft | 1 kts | 159° |
| 2026-05-06 18:16 | 52.36289 | 13.50341 | 154 ft | 0 kts | 159° |
| 2026-05-06 18:19 | 52.36282 | 13.50345 | 154 ft | 3 kts | 160° |
| 2026-05-06 18:19 | 52.36281 | 13.50346 | 154 ft | 0 kts | 160° |
| 2026-05-06 18:21 | 52.36268 | 13.50354 | 154 ft | 0 kts | 160° |
| 2026-05-06 18:21 | 52.36207 | 13.50392 | 154 ft | 13 kts | 158° |
| 2026-05-06 18:22 | 52.36111 | 13.50452 | 154 ft | 16 kts | 159° |
| 2026-05-06 18:22 | 52.35994 | 13.50526 | 154 ft | 19 kts | 159° |
| 2026-05-06 18:22 | 52.35882 | 13.50596 | 154 ft | 16 kts | 159° |
| 2026-05-06 18:22 | 52.35772 | 13.50667 | 152 ft | 15 kts | 159° |
| 2026-05-06 18:23 | 52.35715 | 13.50693 | 152 ft | 5 kts | 194° |
| 2026-05-06 18:23 | 52.35691 | 13.50672 | 153 ft | 10 kts | 228° |
| 2026-05-06 18:23 | 52.35649 | 13.50515 | 153 ft | 16 kts | 249° |
| 2026-05-06 18:23 | 52.35612 | 13.50355 | 153 ft | 15 kts | 249° |
| 2026-05-06 18:24 | 52.35577 | 13.50204 | 153 ft | 14 kts | 249° |
| 2026-05-06 18:24 | 52.35538 | 13.50038 | 153 ft | 17 kts | 249° |
| 2026-05-06 18:24 | 52.35494 | 13.49851 | 153 ft | 18 kts | 249° |
| 2026-05-06 18:24 | 52.35447 | 13.49648 | 153 ft | 20 kts | 249° |
| 2026-05-06 18:25 | 52.35394 | 13.49429 | 153 ft | 21 kts | 247° |
| 2026-05-06 18:25 | 52.35336 | 13.49194 | 153 ft | 24 kts | 249° |
| 2026-05-06 18:25 | 52.35272 | 13.48925 | 154 ft | 27 kts | 249° |
| 2026-05-06 18:25 | 52.35203 | 13.48632 | 154 ft | 28 kts | 249° |
| 2026-05-06 18:26 | 52.35132 | 13.48329 | 154 ft | 27 kts | 249° |
| 2026-05-06 18:26 | 52.35064 | 13.48042 | 155 ft | 28 kts | 249° |
| 2026-05-06 18:26 | 52.34992 | 13.47736 | 155 ft | 29 kts | 249° |
| 2026-05-06 18:26 | 52.34926 | 13.47458 | 155 ft | 24 kts | 249° |
| 2026-05-06 18:27 | 52.34863 | 13.47194 | 156 ft | 25 kts | 249° |
| 2026-05-06 18:27 | 52.34799 | 13.46926 | 157 ft | 18 kts | 249° |
| 2026-05-06 18:27 | 52.34763 | 13.46787 | 157 ft | 10 kts | 229° |
| 2026-05-06 18:27 | 52.34699 | 13.46776 | 160 ft | 8 kts | 157° |
| 2026-05-06 18:28 | 52.34678 | 13.46791 | 161 ft | 4 kts | 157° |
| 2026-05-06 18:28 | 52.34677 | 13.46792 | 161 ft | 0 kts | 157° |
| 2026-05-06 18:31 | 52.34670 | 13.46796 | 161 ft | 3 kts | 157° |
| 2026-05-06 18:32 | 52.34639 | 13.46818 | 163 ft | 7 kts | 157° |
| 2026-05-06 18:32 | 52.34586 | 13.46856 | 164 ft | 9 kts | 143° |
| 2026-05-06 18:32 | 52.34566 | 13.46944 | 165 ft | 10 kts | 75° |
| 2026-05-06 18:32 | 52.34593 | 13.47058 | 164 ft | 14 kts | 69° |
| 2026-05-06 18:33 | 52.34724 | 13.47607 | 162 ft | 94 kts | 68° |
| 2026-05-06 18:33 | 52.35038 | 13.48917 | 166 ft | 150 kts | 70° |
| 2026-05-06 18:33 | 52.35401 | 13.50549 | 687 ft | 153 kts | 69° |
| 2026-05-06 18:33 | 52.35532 | 13.52324 | 1303 ft | 166 kts | 97° |
| 2026-05-06 18:34 | 52.35003 | 13.54082 | 1791 ft | 183 kts | 129° |
| 2026-05-06 18:34 | 52.33884 | 13.55238 | 2227 ft | 199 kts | 161° |
| 2026-05-06 18:34 | 52.32497 | 13.55339 | 2674 ft | 208 kts | 190° |
| 2026-05-06 18:34 | 52.31192 | 13.54276 | 3116 ft | 213 kts | 218° |
| 2026-05-06 18:35 | 52.30412 | 13.53250 | 3287 ft | 223 kts | 219° |
| 2026-05-06 18:35 | 52.29130 | 13.51525 | 3636 ft | 249 kts | 220° |
| 2026-05-06 18:35 | 52.27737 | 13.49675 | 4296 ft | 262 kts | 221° |
| 2026-05-06 18:35 | 52.26412 | 13.46513 | 5744 ft | 257 kts | 255° |
| 2026-05-06 18:36 | 52.26264 | 13.44556 | 6445 ft | 256 kts | 270° |
| 2026-05-06 18:36 | 52.26300 | 13.41651 | 7311 ft | 263 kts | 270° |
| 2026-05-06 18:36 | 52.26313 | 13.38643 | 8246 ft | 265 kts | 269° |
| 2026-05-06 18:36 | 52.26317 | 13.35612 | 9215 ft | 268 kts | 269° |
| 2026-05-06 18:37 | 52.26315 | 13.32544 | 10119 ft | 272 kts | 268° |
| 2026-05-06 18:37 | 52.26307 | 13.29492 | 10960 ft | 275 kts | 268° |
| 2026-05-06 18:37 | 52.26299 | 13.26404 | 11766 ft | 279 kts | 268° |
| 2026-05-06 18:37 | 52.26171 | 13.23267 | 12548 ft | 283 kts | 257° |
| 2026-05-06 18:38 | 52.25562 | 13.20191 | 13301 ft | 288 kts | 245° |
| 2026-05-06 18:38 | 52.24695 | 13.17110 | 13589 ft | 309 kts | 244° |
| 2026-05-06 18:38 | 52.23740 | 13.13823 | 13788 ft | 330 kts | 244° |
| 2026-05-06 18:38 | 52.22743 | 13.10411 | 14235 ft | 340 kts | 244° |
| 2026-05-06 18:39 | 52.21722 | 13.06910 | 14952 ft | 343 kts | 244° |
| 2026-05-06 18:39 | 52.20695 | 13.03380 | 15638 ft | 346 kts | 244° |
| 2026-05-06 18:39 | 52.19657 | 12.99817 | 16320 ft | 349 kts | 244° |
| 2026-05-06 18:40 | 52.17549 | 12.92590 | 17673 ft | 356 kts | 244° |
| 2026-05-06 18:40 | 52.16477 | 12.88920 | 18271 ft | 359 kts | 244° |
| 2026-05-06 18:40 | 52.15437 | 12.85367 | 18863 ft | 361 kts | 244° |
| 2026-05-06 18:40 | 52.14350 | 12.81664 | 19454 ft | 363 kts | 244° |
| 2026-05-06 18:41 | 52.13255 | 12.77935 | 20031 ft | 365 kts | 243° |
| 2026-05-06 18:41 | 52.12153 | 12.74190 | 20589 ft | 368 kts | 243° |
| 2026-05-06 18:41 | 52.11057 | 12.70470 | 21158 ft | 370 kts | 243° |
| 2026-05-06 18:41 | 52.09941 | 12.66687 | 21723 ft | 372 kts | 243° |
| 2026-05-06 18:42 | 52.08807 | 12.62852 | 22295 ft | 375 kts | 243° |
| 2026-05-06 18:42 | 52.07666 | 12.59001 | 22631 ft | 382 kts | 243° |
| 2026-05-06 18:42 | 52.06501 | 12.55078 | 23161 ft | 385 kts | 243° |
| 2026-05-06 18:42 | 52.05339 | 12.51150 | 23641 ft | 387 kts | 243° |
| 2026-05-06 18:43 | 52.04178 | 12.47248 | 24123 ft | 389 kts | 243° |
| 2026-05-06 18:43 | 52.02995 | 12.43281 | 24585 ft | 391 kts | 242° |
| 2026-05-06 18:43 | 52.01804 | 12.39295 | 25070 ft | 393 kts | 242° |
| 2026-05-06 18:43 | 52.00601 | 12.35269 | 25567 ft | 396 kts | 242° |
| 2026-05-06 18:44 | 51.99381 | 12.31199 | 25815 ft | 406 kts | 242° |
| 2026-05-06 18:44 | 51.98133 | 12.27047 | 25802 ft | 422 kts | 243° |
| 2026-05-06 18:44 | 51.96819 | 12.22675 | 25802 ft | 439 kts | 243° |
| 2026-05-06 18:44 | 51.95455 | 12.18145 | 25804 ft | 455 kts | 243° |
| 2026-05-06 18:45 | 51.94037 | 12.13446 | 25799 ft | 470 kts | 243° |
| 2026-05-06 18:45 | 51.92622 | 12.08758 | 25798 ft | 451 kts | 243° |
| 2026-05-06 18:45 | 51.91283 | 12.04324 | 25797 ft | 427 kts | 243° |
| 2026-05-06 18:45 | 51.89996 | 12.00073 | 25651 ft | 415 kts | 242° |
| 2026-05-06 18:46 | 51.88575 | 11.96051 | 25466 ft | 419 kts | 232° |
| 2026-05-06 18:46 | 51.86573 | 11.92597 | 25651 ft | 423 kts | 219° |
| 2026-05-06 18:46 | 51.84098 | 11.90013 | 26310 ft | 425 kts | 207° |
| 2026-05-06 18:46 | 51.81309 | 11.88379 | 26895 ft | 429 kts | 194° |
| 2026-05-06 18:47 | 51.78342 | 11.87762 | 27448 ft | 435 kts | 184° |
| 2026-05-06 18:47 | 51.75309 | 11.87736 | 27998 ft | 439 kts | 181° |
| 2026-05-06 18:47 | 51.72230 | 11.87809 | 28568 ft | 442 kts | 182° |
| 2026-05-06 18:47 | 51.69137 | 11.87821 | 29135 ft | 445 kts | 182° |
| 2026-05-06 18:48 | 51.66008 | 11.87759 | 29650 ft | 449 kts | 183° |
| 2026-05-06 18:48 | 51.62908 | 11.87651 | 30128 ft | 453 kts | 184° |
| 2026-05-06 18:48 | 51.59731 | 11.87520 | 30629 ft | 456 kts | 184° |
| 2026-05-06 18:48 | 51.56535 | 11.87380 | 31106 ft | 459 kts | 184° |
| 2026-05-06 18:49 | 51.53365 | 11.87240 | 31592 ft | 462 kts | 184° |
| 2026-05-06 18:49 | 51.50134 | 11.87099 | 32083 ft | 466 kts | 184° |
| 2026-05-06 18:49 | 51.46868 | 11.86958 | 32657 ft | 466 kts | 185° |
| 2026-05-06 18:49 | 51.43655 | 11.86820 | 33363 ft | 465 kts | 185° |
| 2026-05-06 18:50 | 51.40439 | 11.86686 | 34178 ft | 459 kts | 185° |
| 2026-05-06 18:50 | 51.37226 | 11.86534 | 34680 ft | 460 kts | 185° |
| 2026-05-06 18:50 | 51.34027 | 11.86394 | 35140 ft | 461 kts | 185° |
| 2026-05-06 18:50 | 51.30814 | 11.86261 | 35638 ft | 462 kts | 185° |
| 2026-05-06 18:51 | 51.27596 | 11.86127 | 36119 ft | 462 kts | 185° |
| 2026-05-06 18:51 | 51.24420 | 11.85995 | 36589 ft | 463 kts | 184° |
| 2026-05-06 18:51 | 51.21172 | 11.85856 | 36775 ft | 468 kts | 184° |
| 2026-05-06 18:52 | 51.14762 | 11.85588 | 36782 ft | 457 kts | 185° |
| 2026-05-06 18:52 | 51.08422 | 11.85317 | 36782 ft | 459 kts | 185° |
| 2026-05-06 18:53 | 51.02009 | 11.85045 | 36782 ft | 459 kts | 185° |
| 2026-05-06 18:53 | 50.95612 | 11.84775 | 36781 ft | 459 kts | 185° |
| 2026-05-06 18:54 | 50.89281 | 11.84510 | 36792 ft | 455 kts | 185° |
| 2026-05-06 18:54 | 50.82970 | 11.84245 | 36769 ft | 453 kts | 185° |
| 2026-05-06 18:54 | 50.79801 | 11.84111 | 36592 ft | 454 kts | 185° |
| 2026-05-06 18:55 | 50.76634 | 11.83978 | 36220 ft | 453 kts | 185° |
| 2026-05-06 18:55 | 50.73515 | 11.83849 | 35843 ft | 452 kts | 185° |
| 2026-05-06 18:55 | 50.70373 | 11.83718 | 35444 ft | 450 kts | 185° |
| 2026-05-06 18:55 | 50.67246 | 11.83588 | 35132 ft | 449 kts | 185° |
| 2026-05-06 18:56 | 50.64109 | 11.83457 | 34892 ft | 450 kts | 185° |
| 2026-05-06 18:56 | 50.60976 | 11.83326 | 34784 ft | 450 kts | 185° |
| 2026-05-06 18:56 | 50.57878 | 11.83197 | 34784 ft | 451 kts | 185° |
| 2026-05-06 18:57 | 50.51588 | 11.82963 | 34752 ft | 453 kts | 183° |
| 2026-05-06 18:57 | 50.48422 | 11.83276 | 34491 ft | 455 kts | 177° |
| 2026-05-06 18:57 | 50.45289 | 11.84165 | 34135 ft | 458 kts | 171° |
| 2026-05-06 18:57 | 50.42223 | 11.85609 | 33779 ft | 462 kts | 165° |
| 2026-05-06 18:58 | 50.39239 | 11.87561 | 33357 ft | 465 kts | 161° |
| 2026-05-06 18:58 | 50.36301 | 11.89591 | 32950 ft | 466 kts | 162° |
| 2026-05-06 18:58 | 50.33318 | 11.91625 | 32555 ft | 467 kts | 162° |
| 2026-05-06 18:58 | 50.30324 | 11.93651 | 32160 ft | 468 kts | 162° |
| 2026-05-06 18:59 | 50.27331 | 11.95668 | 31759 ft | 468 kts | 161° |
| 2026-05-06 18:59 | 50.24343 | 11.97679 | 31373 ft | 464 kts | 161° |
| 2026-05-06 18:59 | 50.21384 | 11.99672 | 30994 ft | 461 kts | 161° |
| 2026-05-06 18:59 | 50.18473 | 12.01631 | 30775 ft | 459 kts | 161° |
| 2026-05-06 19:00 | 50.15541 | 12.03600 | 30780 ft | 458 kts | 162° |
| 2026-05-06 19:00 | 50.09668 | 12.07533 | 30788 ft | 459 kts | 162° |
| 2026-05-06 19:01 | 50.03789 | 12.11460 | 30796 ft | 459 kts | 162° |
| 2026-05-06 19:01 | 49.97956 | 12.15343 | 30793 ft | 455 kts | 162° |
| 2026-05-06 19:02 | 49.92120 | 12.19217 | 30790 ft | 456 kts | 162° |
| 2026-05-06 19:02 | 49.89244 | 12.21128 | 30595 ft | 441 kts | 162° |
| 2026-05-06 19:02 | 49.86446 | 12.22985 | 30156 ft | 432 kts | 162° |
| 2026-05-06 19:02 | 49.83694 | 12.24804 | 29573 ft | 427 kts | 162° |
| 2026-05-06 19:03 | 49.81013 | 12.26571 | 28933 ft | 422 kts | 162° |
| 2026-05-06 19:03 | 49.78311 | 12.28351 | 28261 ft | 418 kts | 162° |
| 2026-05-06 19:03 | 49.75632 | 12.30086 | 27524 ft | 413 kts | 165° |
| 2026-05-06 19:03 | 49.72884 | 12.31102 | 26865 ft | 402 kts | 178° |
| 2026-05-06 19:04 | 49.70120 | 12.31140 | 26267 ft | 393 kts | 185° |
| 2026-05-06 19:04 | 49.67397 | 12.31010 | 25760 ft | 389 kts | 185° |
| 2026-05-06 19:04 | 49.64723 | 12.30907 | 25265 ft | 386 kts | 185° |
| 2026-05-06 19:04 | 49.62027 | 12.30813 | 24769 ft | 386 kts | 185° |
| 2026-05-06 19:05 | 49.59330 | 12.30721 | 24286 ft | 386 kts | 184° |
| 2026-05-06 19:05 | 49.56676 | 12.30632 | 23824 ft | 386 kts | 184° |
| 2026-05-06 19:05 | 49.53992 | 12.30542 | 23354 ft | 384 kts | 184° |
| 2026-05-06 19:05 | 49.51312 | 12.30451 | 22808 ft | 384 kts | 184° |
| 2026-05-06 19:06 | 49.48640 | 12.30361 | 22271 ft | 383 kts | 184° |
| 2026-05-06 19:06 | 49.45978 | 12.30272 | 21734 ft | 380 kts | 184° |
| 2026-05-06 19:06 | 49.43348 | 12.30183 | 21203 ft | 377 kts | 184° |
| 2026-05-06 19:06 | 49.40759 | 12.30095 | 20710 ft | 376 kts | 184° |
| 2026-05-06 19:07 | 49.38136 | 12.30006 | 20198 ft | 375 kts | 184° |
| 2026-05-06 19:07 | 49.36415 | 12.29948 | 19866 ft | 373 kts | 184° |
| 2026-05-06 19:07 | 49.32943 | 12.29831 | 19198 ft | 371 kts | 183° |
| 2026-05-06 19:07 | 49.30402 | 12.29745 | 18734 ft | 369 kts | 184° |
| 2026-05-06 19:08 | 49.27840 | 12.29659 | 18266 ft | 365 kts | 184° |
| 2026-05-06 19:08 | 49.25298 | 12.29573 | 17748 ft | 363 kts | 184° |
| 2026-05-06 19:08 | 49.22786 | 12.29489 | 17215 ft | 360 kts | 183° |
| 2026-05-06 19:08 | 49.20287 | 12.29404 | 16691 ft | 358 kts | 183° |
| 2026-05-06 19:09 | 49.17808 | 12.29320 | 16169 ft | 355 kts | 183° |
| 2026-05-06 19:09 | 49.15345 | 12.29237 | 15659 ft | 352 kts | 183° |
| 2026-05-06 19:09 | 49.12925 | 12.29156 | 15168 ft | 350 kts | 183° |
| 2026-05-06 19:09 | 49.10489 | 12.29074 | 14675 ft | 347 kts | 183° |
| 2026-05-06 19:10 | 49.08083 | 12.28994 | 14183 ft | 345 kts | 182° |
| 2026-05-06 19:10 | 49.05690 | 12.28913 | 13715 ft | 341 kts | 182° |
| 2026-05-06 19:10 | 49.03322 | 12.28834 | 13198 ft | 337 kts | 182° |
| 2026-05-06 19:10 | 49.01012 | 12.28758 | 12681 ft | 334 kts | 182° |
| 2026-05-06 19:11 | 48.98696 | 12.28682 | 12157 ft | 330 kts | 182° |
| 2026-05-06 19:11 | 48.96411 | 12.28606 | 11647 ft | 327 kts | 182° |
| 2026-05-06 19:11 | 48.94144 | 12.28531 | 11219 ft | 322 kts | 182° |
| 2026-05-06 19:11 | 48.91931 | 12.28458 | 10961 ft | 312 kts | 182° |
| 2026-05-06 19:12 | 48.89822 | 12.28390 | 10815 ft | 301 kts | 182° |
| 2026-05-06 19:12 | 48.87755 | 12.28322 | 10810 ft | 294 kts | 182° |
| 2026-05-06 19:12 | 48.85754 | 12.28256 | 10818 ft | 279 kts | 184° |
| 2026-05-06 19:12 | 48.83863 | 12.28191 | 10820 ft | 263 kts | 184° |
| 2026-05-06 19:13 | 48.82079 | 12.28137 | 10823 ft | 252 kts | 184° |
| 2026-05-06 19:13 | 48.80339 | 12.28080 | 10823 ft | 247 kts | 184° |
| 2026-05-06 19:13 | 48.78613 | 12.28021 | 10824 ft | 248 kts | 184° |
| 2026-05-06 19:13 | 48.76897 | 12.27961 | 10765 ft | 250 kts | 184° |
| 2026-05-06 19:14 | 48.75130 | 12.27903 | 10451 ft | 255 kts | 184° |
| 2026-05-06 19:14 | 48.73346 | 12.27846 | 10087 ft | 257 kts | 184° |
| 2026-05-06 19:14 | 48.71561 | 12.27789 | 9694 ft | 256 kts | 184° |
| 2026-05-06 19:14 | 48.69789 | 12.27730 | 9302 ft | 253 kts | 184° |
| 2026-05-06 19:15 | 48.68038 | 12.27671 | 8917 ft | 251 kts | 184° |
| 2026-05-06 19:15 | 48.66318 | 12.27614 | 8623 ft | 246 kts | 184° |
| 2026-05-06 19:15 | 48.64621 | 12.27559 | 8440 ft | 239 kts | 184° |
| 2026-05-06 19:15 | 48.62972 | 12.27504 | 8287 ft | 236 kts | 186° |
| 2026-05-06 19:16 | 48.61374 | 12.27188 | 8126 ft | 229 kts | 205° |
| 2026-05-06 19:16 | 48.60095 | 12.25849 | 7990 ft | 223 kts | 231° |
| 2026-05-06 19:16 | 48.59381 | 12.23781 | 7832 ft | 225 kts | 256° |
| 2026-05-06 19:16 | 48.59206 | 12.21474 | 7696 ft | 224 kts | 263° |
| 2026-05-06 19:17 | 48.59050 | 12.19146 | 7542 ft | 221 kts | 262° |
| 2026-05-06 19:17 | 48.58883 | 12.16844 | 7391 ft | 219 kts | 263° |
| 2026-05-06 19:17 | 48.58717 | 12.14567 | 7248 ft | 218 kts | 263° |
| 2026-05-06 19:17 | 48.58547 | 12.12318 | 7104 ft | 217 kts | 263° |
| 2026-05-06 19:18 | 48.58374 | 12.10050 | 6954 ft | 216 kts | 263° |
| 2026-05-06 19:18 | 48.58203 | 12.07786 | 6796 ft | 215 kts | 263° |
| 2026-05-06 19:18 | 48.57807 | 12.05615 | 6649 ft | 217 kts | 240° |
| 2026-05-06 19:18 | 48.56698 | 12.04096 | 6514 ft | 227 kts | 210° |
| 2026-05-06 19:19 | 48.55110 | 12.03676 | 6372 ft | 241 kts | 180° |
| 2026-05-06 19:19 | 48.53506 | 12.04588 | 6213 ft | 256 kts | 149° |
| 2026-05-06 19:19 | 48.52308 | 12.06645 | 5986 ft | 266 kts | 125° |
| 2026-05-06 19:19 | 48.51366 | 12.09072 | 5720 ft | 267 kts | 124° |
| 2026-05-06 19:20 | 48.50424 | 12.11487 | 5462 ft | 267 kts | 124° |
| 2026-05-06 19:20 | 48.49475 | 12.13882 | 5213 ft | 266 kts | 124° |
| 2026-05-06 19:20 | 48.48842 | 12.15463 | 5080 ft | 263 kts | 124° |
| 2026-05-06 19:20 | 48.47295 | 12.18011 | 4946 ft | 243 kts | 159° |
| 2026-05-06 19:21 | 48.45706 | 12.18776 | 4705 ft | 241 kts | 174° |
| 2026-05-06 19:21 | 48.44070 | 12.19337 | 4440 ft | 241 kts | 175° |
| 2026-05-06 19:21 | 48.42453 | 12.19354 | 4192 ft | 228 kts | 204° |
| 2026-05-06 19:21 | 48.41538 | 12.18671 | 4059 ft | 214 kts | 226° |
| 2026-05-06 19:22 | 48.40552 | 12.17112 | 4062 ft | 199 kts | 234° |
| 2026-05-06 19:22 | 48.39726 | 12.15566 | 4051 ft | 186 kts | 245° |
| 2026-05-06 19:22 | 48.39258 | 12.13895 | 4062 ft | 158 kts | 258° |
| 2026-05-06 19:22 | 48.39031 | 12.12330 | 4058 ft | 151 kts | 263° |
| 2026-05-06 19:23 | 48.38884 | 12.10781 | 4051 ft | 148 kts | 265° |
| 2026-05-06 19:23 | 48.38764 | 12.09265 | 4055 ft | 148 kts | 266° |
| 2026-05-06 19:23 | 48.38645 | 12.07722 | 4056 ft | 148 kts | 266° |
| 2026-05-06 19:23 | 48.38527 | 12.06173 | 4052 ft | 149 kts | 265° |
| 2026-05-06 19:24 | 48.38407 | 12.04621 | 4050 ft | 150 kts | 265° |
| 2026-05-06 19:24 | 48.38289 | 12.03058 | 4057 ft | 151 kts | 265° |
| 2026-05-06 19:24 | 48.38169 | 12.01488 | 4038 ft | 151 kts | 265° |
| 2026-05-06 19:24 | 48.38051 | 11.99955 | 3860 ft | 147 kts | 265° |
| 2026-05-06 19:25 | 48.37936 | 11.98463 | 3661 ft | 139 kts | 265° |
| 2026-05-06 19:25 | 48.37831 | 11.97088 | 3478 ft | 126 kts | 265° |
| 2026-05-06 19:25 | 48.37734 | 11.95812 | 3315 ft | 120 kts | 265° |
| 2026-05-06 19:25 | 48.37639 | 11.94571 | 3161 ft | 118 kts | 265° |
| 2026-05-06 19:26 | 48.37547 | 11.93358 | 2999 ft | 119 kts | 265° |
| 2026-05-06 19:26 | 48.37451 | 11.92104 | 2827 ft | 123 kts | 264° |
| 2026-05-06 19:26 | 48.37353 | 11.90817 | 2658 ft | 124 kts | 264° |
| 2026-05-06 19:26 | 48.37255 | 11.89551 | 2520 ft | 124 kts | 263° |
| 2026-05-06 19:27 | 48.37151 | 11.88246 | 2321 ft | 127 kts | 264° |
| 2026-05-06 19:27 | 48.37044 | 11.86927 | 2155 ft | 124 kts | 261° |
| 2026-05-06 19:27 | 48.36950 | 11.85662 | 1997 ft | 121 kts | 262° |
| 2026-05-06 19:27 | 48.36861 | 11.84421 | 1823 ft | 121 kts | 261° |
| 2026-05-06 19:28 | 48.36766 | 11.83157 | 1654 ft | 121 kts | 262° |
| 2026-05-06 19:28 | 48.36666 | 11.81900 | 1510 ft | 118 kts | 263° |
| 2026-05-06 19:28 | 48.36587 | 11.80856 | 1490 ft | 78 kts | 263° |
| 2026-05-06 19:28 | 48.36549 | 11.80326 | 1485 ft | 37 kts | 264° |
| 2026-05-06 19:29 | 48.36523 | 11.80000 | 1476 ft | 27 kts | 262° |
| 2026-05-06 19:29 | 48.36455 | 11.79730 | 1479 ft | 20 kts | 241° |
| 2026-05-06 19:29 | 48.36391 | 11.79579 | 1475 ft | 22 kts | 233° |
| 2026-05-06 19:29 | 48.36315 | 11.79425 | 1479 ft | 9 kts | 233° |
| 2026-05-06 19:30 | 48.36289 | 11.79372 | 1475 ft | 0 kts | 233° |
| 2026-05-06 19:30 | 48.36267 | 11.79329 | 1477 ft | 9 kts | 233° |
| 2026-05-06 19:30 | 48.36230 | 11.79291 | 1477 ft | 6 kts | 178° |
| 2026-05-06 19:30 | 48.36144 | 11.79307 | 1483 ft | 12 kts | 173° |
| 2026-05-06 19:31 | 48.36055 | 11.79324 | 1487 ft | 12 kts | 173° |
| 2026-05-06 19:31 | 48.35971 | 11.79341 | 1482 ft | 13 kts | 173° |
| 2026-05-06 19:31 | 48.35839 | 11.79385 | 1483 ft | 13 kts | 165° |
| 2026-05-06 19:32 | 48.35789 | 11.79451 | 1481 ft | 16 kts | 103° |
| 2026-05-06 19:32 | 48.35794 | 11.79551 | 1481 ft | 0 kts | 83° |
| 2026-05-06 19:32 | 48.35803 | 11.79648 | 1480 ft | 11 kts | 82° |
| 2026-05-06 19:32 | 48.35812 | 11.79759 | 1487 ft | 10 kts | 83° |
| 2026-05-06 19:33 | 48.35822 | 11.79893 | 1490 ft | 15 kts | 83° |
| 2026-05-06 19:33 | 48.35805 | 11.80033 | 1483 ft | 15 kts | 145° |
| 2026-05-06 19:33 | 48.35709 | 11.80080 | 1478 ft | 15 kts | 167° |
| 2026-05-06 19:33 | 48.35617 | 11.80109 | 1481 ft | 13 kts | 172° |
| 2026-05-06 19:34 | 48.35532 | 11.80127 | 1486 ft | 13 kts | 172° |
| 2026-05-06 19:34 | 48.35462 | 11.80140 | 1488 ft | 10 kts | 175° |
| 2026-05-06 19:34 | 48.35389 | 11.80147 | 1488 ft | 6 kts | 174° |
| 2026-05-06 19:34 | 48.35348 | 11.80126 | 1479 ft | 6 kts | 236° |
| 2026-05-06 19:35 | 48.35342 | 11.80061 | 1486 ft | 6 kts | 268° |
| 2026-05-06 19:35 | 48.35339 | 11.80029 | 1490 ft | 0 kts | 263° |
| 2026-05-06 19:36 | 48.35339 | 11.80027 | 1490 ft | 0 kts | 263° |